sensor_id;sensor_type;location;lat;lon;timestamp;P1;durP1;ratioP1;P2;durP2;ratioP2
14797;SDS011;7490;63.708;20.368;2024-02-21T00:01:45;12.07;;;5.40;;
14797;SDS011;7490;63.708;20.368;2024-02-21T00:04:11;11.60;;;6.30;;
14797;SDS011;7490;63.708;20.368;2024-02-21T00:06:36;15.97;;;6.67;;
14797;SDS011;7490;63.708;20.368;2024-02-21T00:09:02;8.93;;;5.30;;
14797;SDS011;7490;63.708;20.368;2024-02-21T00:11:28;8.37;;;4.93;;
14797;SDS011;7490;63.708;20.368;2024-02-21T00:13:53;10.30;;;4.30;;
14797;SDS011;7490;63.708;20.368;2024-02-21T00:16:19;14.97;;;5.50;;
14797;SDS011;7490;63.708;20.368;2024-02-21T00:18:45;15.43;;;5.30;;
14797;SDS011;7490;63.708;20.368;2024-02-21T00:21:11;12.03;;;5.03;;
14797;SDS011;7490;63.708;20.368;2024-02-21T00:23:43;10.53;;;4.87;;
14797;SDS011;7490;63.708;20.368;2024-02-21T00:26:11;10.43;;;4.90;;
14797;SDS011;7490;63.708;20.368;2024-02-21T00:28:38;13.20;;;5.07;;
14797;SDS011;7490;63.708;20.368;2024-02-21T00:31:04;7.60;;;4.57;;
14797;SDS011;7490;63.708;20.368;2024-02-21T00:33:30;19.07;;;5.87;;
14797;SDS011;7490;63.708;20.368;2024-02-21T00:35:55;15.57;;;5.03;;
14797;SDS011;7490;63.708;20.368;2024-02-21T00:38:21;9.47;;;5.13;;
14797;SDS011;7490;63.708;20.368;2024-02-21T00:40:47;11.77;;;5.10;;
14797;SDS011;7490;63.708;20.368;2024-02-21T00:43:12;11.60;;;5.10;;
14797;SDS011;7490;63.708;20.368;2024-02-21T00:45:38;9.90;;;5.10;;
14797;SDS011;7490;63.708;20.368;2024-02-21T00:48:04;14.93;;;5.50;;
14797;SDS011;7490;63.708;20.368;2024-02-21T00:50:30;19.47;;;6.00;;
14797;SDS011;7490;63.708;20.368;2024-02-21T00:52:56;13.83;;;6.23;;
14797;SDS011;7490;63.708;20.368;2024-02-21T00:55:23;17.30;;;6.27;;
14797;SDS011;7490;63.708;20.368;2024-02-21T00:57:48;16.90;;;6.37;;
14797;SDS011;7490;63.708;20.368;2024-02-21T01:00:14;12.97;;;5.37;;
14797;SDS011;7490;63.708;20.368;2024-02-21T01:02:40;9.67;;;5.37;;
14797;SDS011;7490;63.708;20.368;2024-02-21T01:05:06;5.77;;;4.10;;
14797;SDS011;7490;63.708;20.368;2024-02-21T01:07:32;8.40;;;3.93;;
14797;SDS011;7490;63.708;20.368;2024-02-21T01:09:58;5.20;;;3.70;;
14797;SDS011;7490;63.708;20.368;2024-02-21T01:12:23;5.33;;;4.50;;
14797;SDS011;7490;63.708;20.368;2024-02-21T01:14:49;5.50;;;4.30;;
14797;SDS011;7490;63.708;20.368;2024-02-21T01:17:15;6.77;;;3.83;;
14797;SDS011;7490;63.708;20.368;2024-02-21T01:19:40;9.10;;;4.10;;
14797;SDS011;7490;63.708;20.368;2024-02-21T01:22:06;6.87;;;4.37;;
14797;SDS011;7490;63.708;20.368;2024-02-21T01:24:33;5.53;;;3.80;;
14797;SDS011;7490;63.708;20.368;2024-02-21T01:27:00;7.83;;;5.03;;
14797;SDS011;7490;63.708;20.368;2024-02-21T01:29:25;7.20;;;4.30;;
14797;SDS011;7490;63.708;20.368;2024-02-21T01:31:51;7.80;;;4.77;;
14797;SDS011;7490;63.708;20.368;2024-02-21T01:34:17;16.07;;;4.93;;
14797;SDS011;7490;63.708;20.368;2024-02-21T01:36:42;8.77;;;4.57;;
14797;SDS011;7490;63.708;20.368;2024-02-21T01:39:08;10.33;;;5.43;;
14797;SDS011;7490;63.708;20.368;2024-02-21T01:41:33;11.43;;;4.63;;
14797;SDS011;7490;63.708;20.368;2024-02-21T01:43:59;8.63;;;5.13;;
14797;SDS011;7490;63.708;20.368;2024-02-21T01:46:25;7.03;;;4.33;;
14797;SDS011;7490;63.708;20.368;2024-02-21T01:48:54;8.43;;;4.97;;
14797;SDS011;7490;63.708;20.368;2024-02-21T01:51:20;8.97;;;5.60;;
14797;SDS011;7490;63.708;20.368;2024-02-21T01:53:46;7.90;;;4.97;;
14797;SDS011;7490;63.708;20.368;2024-02-21T01:56:12;8.53;;;5.27;;
14797;SDS011;7490;63.708;20.368;2024-02-21T01:58:39;6.73;;;4.30;;
14797;SDS011;7490;63.708;20.368;2024-02-21T02:01:06;7.20;;;4.40;;
14797;SDS011;7490;63.708;20.368;2024-02-21T02:03:33;8.20;;;5.07;;
14797;SDS011;7490;63.708;20.368;2024-02-21T02:05:59;10.83;;;5.17;;
14797;SDS011;7490;63.708;20.368;2024-02-21T02:08:25;21.47;;;6.13;;
14797;SDS011;7490;63.708;20.368;2024-02-21T02:10:51;30.73;;;6.37;;
14797;SDS011;7490;63.708;20.368;2024-02-21T02:13:17;8.33;;;5.00;;
14797;SDS011;7490;63.708;20.368;2024-02-21T02:15:43;6.07;;;3.73;;
14797;SDS011;7490;63.708;20.368;2024-02-21T02:18:11;9.87;;;3.83;;
14797;SDS011;7490;63.708;20.368;2024-02-21T02:20:37;35.90;;;5.97;;
14797;SDS011;7490;63.708;20.368;2024-02-21T02:25:57;75.57;;;7.10;;
14797;SDS011;7490;63.708;20.368;2024-02-21T02:28:23;39.50;;;4.73;;
14797;SDS011;7490;63.708;20.368;2024-02-21T02:30:49;5.73;;;2.73;;
14797;SDS011;7490;63.708;20.368;2024-02-21T02:33:15;3.83;;;2.43;;
14797;SDS011;7490;63.708;20.368;2024-02-21T02:35:44;2.70;;;2.30;;
14797;SDS011;7490;63.708;20.368;2024-02-21T02:38:11;18.07;;;3.30;;
14797;SDS011;7490;63.708;20.368;2024-02-21T02:40:38;18.07;;;3.27;;
14797;SDS011;7490;63.708;20.368;2024-02-21T02:43:05;39.33;;;4.03;;
14797;SDS011;7490;63.708;20.368;2024-02-21T02:45:32;7.63;;;2.67;;
14797;SDS011;7490;63.708;20.368;2024-02-21T02:47:58;2.57;;;1.60;;
14797;SDS011;7490;63.708;20.368;2024-02-21T02:50:24;1.77;;;1.50;;
14797;SDS011;7490;63.708;20.368;2024-02-21T02:52:51;3.33;;;1.47;;
14797;SDS011;7490;63.708;20.368;2024-02-21T02:55:17;8.37;;;2.13;;
14797;SDS011;7490;63.708;20.368;2024-02-21T02:57:42;8.83;;;3.60;;
14797;SDS011;7490;63.708;20.368;2024-02-21T03:00:09;15.47;;;2.20;;
14797;SDS011;7490;63.708;20.368;2024-02-21T03:02:37;26.53;;;3.27;;
14797;SDS011;7490;63.708;20.368;2024-02-21T03:05:09;2.47;;;1.83;;
14797;SDS011;7490;63.708;20.368;2024-02-21T03:07:40;8.77;;;2.67;;
14797;SDS011;7490;63.708;20.368;2024-02-21T03:10:06;12.03;;;2.60;;
14797;SDS011;7490;63.708;20.368;2024-02-21T03:12:32;12.43;;;2.67;;
14797;SDS011;7490;63.708;20.368;2024-02-21T03:14:58;7.00;;;2.60;;
14797;SDS011;7490;63.708;20.368;2024-02-21T03:17:24;12.67;;;2.77;;
14797;SDS011;7490;63.708;20.368;2024-02-21T03:19:52;5.43;;;2.60;;
14797;SDS011;7490;63.708;20.368;2024-02-21T03:22:17;5.10;;;2.17;;
14797;SDS011;7490;63.708;20.368;2024-02-21T03:24:43;7.93;;;2.30;;
14797;SDS011;7490;63.708;20.368;2024-02-21T03:27:09;3.93;;;2.30;;
14797;SDS011;7490;63.708;20.368;2024-02-21T03:29:35;7.73;;;2.43;;
14797;SDS011;7490;63.708;20.368;2024-02-21T03:32:00;3.33;;;2.33;;
14797;SDS011;7490;63.708;20.368;2024-02-21T03:34:26;2.63;;;1.73;;
14797;SDS011;7490;63.708;20.368;2024-02-21T03:36:52;3.00;;;1.80;;
14797;SDS011;7490;63.708;20.368;2024-02-21T03:39:18;8.00;;;2.30;;
14797;SDS011;7490;63.708;20.368;2024-02-21T03:41:43;4.20;;;2.70;;
14797;SDS011;7490;63.708;20.368;2024-02-21T03:44:09;7.70;;;2.87;;
14797;SDS011;7490;63.708;20.368;2024-02-21T03:46:36;5.50;;;2.93;;
14797;SDS011;7490;63.708;20.368;2024-02-21T03:49:01;10.20;;;3.10;;
14797;SDS011;7490;63.708;20.368;2024-02-21T03:51:27;6.77;;;2.70;;
14797;SDS011;7490;63.708;20.368;2024-02-21T03:53:53;3.80;;;2.53;;
14797;SDS011;7490;63.708;20.368;2024-02-21T03:56:18;16.13;;;3.40;;
14797;SDS011;7490;63.708;20.368;2024-02-21T03:58:44;25.53;;;3.97;;
14797;SDS011;7490;63.708;20.368;2024-02-21T04:01:10;41.87;;;5.20;;
14797;SDS011;7490;63.708;20.368;2024-02-21T04:03:35;30.50;;;4.73;;
14797;SDS011;7490;63.708;20.368;2024-02-21T04:06:01;52.63;;;6.43;;
14797;SDS011;7490;63.708;20.368;2024-02-21T04:08:27;50.33;;;5.87;;
14797;SDS011;7490;63.708;20.368;2024-02-21T04:10:52;70.87;;;6.87;;
14797;SDS011;7490;63.708;20.368;2024-02-21T04:13:18;12.73;;;3.37;;
14797;SDS011;7490;63.708;20.368;2024-02-21T04:15:44;6.07;;;3.00;;
14797;SDS011;7490;63.708;20.368;2024-02-21T04:18:09;8.10;;;2.50;;
14797;SDS011;7490;63.708;20.368;2024-02-21T04:20:35;21.07;;;3.53;;
14797;SDS011;7490;63.708;20.368;2024-02-21T04:23:01;25.70;;;4.23;;
14797;SDS011;7490;63.708;20.368;2024-02-21T04:25:26;21.03;;;4.03;;
14797;SDS011;7490;63.708;20.368;2024-02-21T04:27:53;8.40;;;3.43;;
14797;SDS011;7490;63.708;20.368;2024-02-21T04:30:19;21.70;;;4.90;;
14797;SDS011;7490;63.708;20.368;2024-02-21T04:32:44;24.97;;;5.20;;
14797;SDS011;7490;63.708;20.368;2024-02-21T04:35:10;25.37;;;5.00;;
14797;SDS011;7490;63.708;20.368;2024-02-21T04:37:36;57.30;;;7.10;;
14797;SDS011;7490;63.708;20.368;2024-02-21T04:40:01;22.03;;;4.70;;
14797;SDS011;7490;63.708;20.368;2024-02-21T04:42:27;23.67;;;5.20;;
14797;SDS011;7490;63.708;20.368;2024-02-21T04:44:53;10.50;;;4.73;;
14797;SDS011;7490;63.708;20.368;2024-02-21T04:47:19;46.37;;;5.80;;
14797;SDS011;7490;63.708;20.368;2024-02-21T04:49:51;101.30;;;10.13;;
14797;SDS011;7490;63.708;20.368;2024-02-21T04:52:16;85.07;;;7.67;;
14797;SDS011;7490;63.708;20.368;2024-02-21T04:54:42;73.17;;;9.10;;
14797;SDS011;7490;63.708;20.368;2024-02-21T04:57:08;42.77;;;6.43;;
14797;SDS011;7490;63.708;20.368;2024-02-21T04:59:35;29.50;;;6.33;;
14797;SDS011;7490;63.708;20.368;2024-02-21T05:02:01;14.07;;;4.97;;
14797;SDS011;7490;63.708;20.368;2024-02-21T05:04:27;15.37;;;5.57;;
14797;SDS011;7490;63.708;20.368;2024-02-21T05:06:53;12.90;;;4.90;;
14797;SDS011;7490;63.708;20.368;2024-02-21T05:09:19;12.73;;;4.73;;
14797;SDS011;7490;63.708;20.368;2024-02-21T05:11:45;10.67;;;5.13;;
14797;SDS011;7490;63.708;20.368;2024-02-21T05:14:11;8.27;;;4.77;;
14797;SDS011;7490;63.708;20.368;2024-02-21T05:16:38;9.47;;;4.83;;
14797;SDS011;7490;63.708;20.368;2024-02-21T05:19:04;7.93;;;4.27;;
14797;SDS011;7490;63.708;20.368;2024-02-21T05:21:30;7.27;;;3.57;;
14797;SDS011;7490;63.708;20.368;2024-02-21T05:23:56;9.57;;;4.30;;
14797;SDS011;7490;63.708;20.368;2024-02-21T05:26:22;8.10;;;4.07;;
14797;SDS011;7490;63.708;20.368;2024-02-21T05:28:51;7.67;;;3.60;;
14797;SDS011;7490;63.708;20.368;2024-02-21T05:31:17;4.87;;;3.07;;
14797;SDS011;7490;63.708;20.368;2024-02-21T05:33:44;7.03;;;3.17;;
14797;SDS011;7490;63.708;20.368;2024-02-21T05:36:10;7.47;;;3.30;;
14797;SDS011;7490;63.708;20.368;2024-02-21T05:38:36;5.90;;;3.20;;
14797;SDS011;7490;63.708;20.368;2024-02-21T05:41:02;7.30;;;3.37;;
14797;SDS011;7490;63.708;20.368;2024-02-21T05:43:28;5.73;;;2.83;;
14797;SDS011;7490;63.708;20.368;2024-02-21T05:45:54;5.80;;;2.73;;
14797;SDS011;7490;63.708;20.368;2024-02-21T05:48:20;5.17;;;2.83;;
14797;SDS011;7490;63.708;20.368;2024-02-21T05:50:49;5.17;;;2.90;;
14797;SDS011;7490;63.708;20.368;2024-02-21T05:53:15;5.57;;;2.70;;
14797;SDS011;7490;63.708;20.368;2024-02-21T05:55:40;4.90;;;2.87;;
14797;SDS011;7490;63.708;20.368;2024-02-21T05:58:06;5.23;;;2.83;;
14797;SDS011;7490;63.708;20.368;2024-02-21T06:00:32;4.20;;;2.60;;
14797;SDS011;7490;63.708;20.368;2024-02-21T06:02:58;3.37;;;2.43;;
14797;SDS011;7490;63.708;20.368;2024-02-21T06:05:24;4.53;;;2.30;;
14797;SDS011;7490;63.708;20.368;2024-02-21T06:07:50;4.20;;;2.30;;
14797;SDS011;7490;63.708;20.368;2024-02-21T06:10:15;5.50;;;2.37;;
14797;SDS011;7490;63.708;20.368;2024-02-21T06:12:41;3.13;;;2.07;;
14797;SDS011;7490;63.708;20.368;2024-02-21T06:15:07;4.40;;;2.40;;
14797;SDS011;7490;63.708;20.368;2024-02-21T06:17:33;5.10;;;2.83;;
14797;SDS011;7490;63.708;20.368;2024-02-21T06:19:59;5.23;;;2.67;;
14797;SDS011;7490;63.708;20.368;2024-02-21T06:22:24;4.77;;;2.67;;
14797;SDS011;7490;63.708;20.368;2024-02-21T06:24:50;4.47;;;2.70;;
14797;SDS011;7490;63.708;20.368;2024-02-21T06:27:16;3.73;;;2.60;;
14797;SDS011;7490;63.708;20.368;2024-02-21T06:29:42;5.20;;;2.60;;
14797;SDS011;7490;63.708;20.368;2024-02-21T06:32:07;7.07;;;3.30;;
14797;SDS011;7490;63.708;20.368;2024-02-21T06:34:33;5.57;;;2.80;;
14797;SDS011;7490;63.708;20.368;2024-02-21T06:36:59;6.77;;;3.00;;
14797;SDS011;7490;63.708;20.368;2024-02-21T06:39:25;4.33;;;2.73;;
14797;SDS011;7490;63.708;20.368;2024-02-21T06:41:50;5.33;;;2.80;;
14797;SDS011;7490;63.708;20.368;2024-02-21T06:44:17;4.87;;;3.13;;
14797;SDS011;7490;63.708;20.368;2024-02-21T06:46:43;6.13;;;3.30;;
14797;SDS011;7490;63.708;20.368;2024-02-21T06:49:09;5.33;;;2.87;;
14797;SDS011;7490;63.708;20.368;2024-02-21T06:51:40;3.80;;;2.80;;
14797;SDS011;7490;63.708;20.368;2024-02-21T06:54:09;4.33;;;2.77;;
14797;SDS011;7490;63.708;20.368;2024-02-21T06:56:36;4.70;;;2.93;;
14797;SDS011;7490;63.708;20.368;2024-02-21T06:59:02;5.00;;;2.97;;
14797;SDS011;7490;63.708;20.368;2024-02-21T07:01:31;6.03;;;3.10;;
14797;SDS011;7490;63.708;20.368;2024-02-21T07:03:57;6.07;;;3.23;;
14797;SDS011;7490;63.708;20.368;2024-02-21T07:06:23;5.50;;;3.20;;
14797;SDS011;7490;63.708;20.368;2024-02-21T07:08:48;3.70;;;2.63;;
14797;SDS011;7490;63.708;20.368;2024-02-21T07:11:14;6.23;;;3.10;;
14797;SDS011;7490;63.708;20.368;2024-02-21T07:13:40;4.77;;;2.90;;
14797;SDS011;7490;63.708;20.368;2024-02-21T07:16:06;6.07;;;2.90;;
14797;SDS011;7490;63.708;20.368;2024-02-21T07:18:32;5.20;;;2.73;;
14797;SDS011;7490;63.708;20.368;2024-02-21T07:20:58;3.93;;;2.53;;
14797;SDS011;7490;63.708;20.368;2024-02-21T07:23:24;3.33;;;2.30;;
14797;SDS011;7490;63.708;20.368;2024-02-21T07:25:50;3.03;;;2.60;;
14797;SDS011;7490;63.708;20.368;2024-02-21T07:28:16;2.67;;;1.93;;
14797;SDS011;7490;63.708;20.368;2024-02-21T07:30:42;2.93;;;2.20;;
14797;SDS011;7490;63.708;20.368;2024-02-21T07:33:08;2.93;;;2.20;;
14797;SDS011;7490;63.708;20.368;2024-02-21T07:35:34;3.13;;;2.47;;
14797;SDS011;7490;63.708;20.368;2024-02-21T07:38:03;3.90;;;2.13;;
14797;SDS011;7490;63.708;20.368;2024-02-21T07:40:29;3.13;;;2.00;;
14797;SDS011;7490;63.708;20.368;2024-02-21T07:42:55;1.60;;;1.50;;
14797;SDS011;7490;63.708;20.368;2024-02-21T07:45:21;1.90;;;1.70;;
14797;SDS011;7490;63.708;20.368;2024-02-21T07:47:48;3.03;;;1.40;;
14797;SDS011;7490;63.708;20.368;2024-02-21T07:50:14;2.07;;;1.60;;
14797;SDS011;7490;63.708;20.368;2024-02-21T07:52:40;3.10;;;1.70;;
14797;SDS011;7490;63.708;20.368;2024-02-21T07:55:06;1.73;;;1.60;;
14797;SDS011;7490;63.708;20.368;2024-02-21T07:57:31;3.03;;;1.70;;
14797;SDS011;7490;63.708;20.368;2024-02-21T07:59:57;1.50;;;1.40;;
14797;SDS011;7490;63.708;20.368;2024-02-21T08:02:23;1.73;;;1.60;;
14797;SDS011;7490;63.708;20.368;2024-02-21T08:04:48;2.30;;;1.73;;
14797;SDS011;7490;63.708;20.368;2024-02-21T08:07:14;1.93;;;1.57;;
14797;SDS011;7490;63.708;20.368;2024-02-21T08:09:40;1.90;;;1.50;;
14797;SDS011;7490;63.708;20.368;2024-02-21T08:12:05;1.90;;;1.40;;
14797;SDS011;7490;63.708;20.368;2024-02-21T08:14:31;1.60;;;1.50;;
14797;SDS011;7490;63.708;20.368;2024-02-21T08:16:57;2.10;;;1.60;;
14797;SDS011;7490;63.708;20.368;2024-02-21T08:19:24;2.30;;;1.70;;
14797;SDS011;7490;63.708;20.368;2024-02-21T08:21:50;1.97;;;1.50;;
14797;SDS011;7490;63.708;20.368;2024-02-21T08:24:15;1.60;;;1.50;;
14797;SDS011;7490;63.708;20.368;2024-02-21T08:26:42;1.40;;;1.30;;
14797;SDS011;7490;63.708;20.368;2024-02-21T08:29:09;1.93;;;1.73;;
14797;SDS011;7490;63.708;20.368;2024-02-21T08:31:35;2.10;;;1.70;;
14797;SDS011;7490;63.708;20.368;2024-02-21T08:34:01;1.97;;;1.63;;
14797;SDS011;7490;63.708;20.368;2024-02-21T08:36:33;1.87;;;1.33;;
14797;SDS011;7490;63.708;20.368;2024-02-21T08:38:59;1.47;;;1.03;;
14797;SDS011;7490;63.708;20.368;2024-02-21T08:41:25;2.60;;;1.30;;
14797;SDS011;7490;63.708;20.368;2024-02-21T08:43:52;2.50;;;1.27;;
14797;SDS011;7490;63.708;20.368;2024-02-21T08:46:19;2.23;;;1.00;;
14797;SDS011;7490;63.708;20.368;2024-02-21T08:48:45;1.60;;;1.33;;
14797;SDS011;7490;63.708;20.368;2024-02-21T08:51:12;2.27;;;1.30;;
14797;SDS011;7490;63.708;20.368;2024-02-21T08:53:41;1.33;;;1.23;;
14797;SDS011;7490;63.708;20.368;2024-02-21T08:56:06;1.50;;;1.20;;
14797;SDS011;7490;63.708;20.368;2024-02-21T08:58:33;2.07;;;1.33;;
14797;SDS011;7490;63.708;20.368;2024-02-21T09:01:00;1.10;;;1.00;;
14797;SDS011;7490;63.708;20.368;2024-02-21T09:03:26;1.60;;;1.00;;
14797;SDS011;7490;63.708;20.368;2024-02-21T09:05:51;1.47;;;1.20;;
14797;SDS011;7490;63.708;20.368;2024-02-21T09:08:18;1.13;;;1.03;;
14797;SDS011;7490;63.708;20.368;2024-02-21T09:10:44;0.90;;;0.90;;
14797;SDS011;7490;63.708;20.368;2024-02-21T09:13:09;1.23;;;1.13;;
14797;SDS011;7490;63.708;20.368;2024-02-21T09:15:35;1.30;;;1.20;;
14797;SDS011;7490;63.708;20.368;2024-02-21T09:18:01;1.90;;;1.00;;
14797;SDS011;7490;63.708;20.368;2024-02-21T09:20:26;1.20;;;1.10;;
14797;SDS011;7490;63.708;20.368;2024-02-21T09:22:52;1.30;;;1.20;;
14797;SDS011;7490;63.708;20.368;2024-02-21T09:25:18;1.27;;;1.17;;
14797;SDS011;7490;63.708;20.368;2024-02-21T09:27:44;1.50;;;1.10;;
14797;SDS011;7490;63.708;20.368;2024-02-21T09:30:10;1.13;;;1.03;;
14797;SDS011;7490;63.708;20.368;2024-02-21T09:32:37;2.20;;;1.00;;
14797;SDS011;7490;63.708;20.368;2024-02-21T09:35:03;0.70;;;0.70;;
14797;SDS011;7490;63.708;20.368;2024-02-21T09:37:30;1.63;;;1.03;;
14797;SDS011;7490;63.708;20.368;2024-02-21T09:39:56;2.20;;;1.00;;
14797;SDS011;7490;63.708;20.368;2024-02-21T09:42:22;0.80;;;0.80;;
14797;SDS011;7490;63.708;20.368;2024-02-21T09:45:07;0.80;;;0.80;;
14797;SDS011;7490;63.708;20.368;2024-02-21T09:50:40;0.70;;;0.70;;
14797;SDS011;7490;63.708;20.368;2024-02-21T09:53:07;0.80;;;0.80;;
14797;SDS011;7490;63.708;20.368;2024-02-21T09:55:33;0.90;;;0.70;;
14797;SDS011;7490;63.708;20.368;2024-02-21T09:58:01;0.93;;;0.90;;
14797;SDS011;7490;63.708;20.368;2024-02-21T10:00:27;0.90;;;0.80;;
14797;SDS011;7490;63.708;20.368;2024-02-21T10:02:53;0.60;;;0.60;;
14797;SDS011;7490;63.708;20.368;2024-02-21T10:05:19;1.43;;;0.67;;
14797;SDS011;7490;63.708;20.368;2024-02-21T10:07:45;0.70;;;0.70;;
14797;SDS011;7490;63.708;20.368;2024-02-21T10:10:11;0.80;;;0.80;;
14797;SDS011;7490;63.708;20.368;2024-02-21T10:12:47;1.10;;;0.70;;
14797;SDS011;7490;63.708;20.368;2024-02-21T10:15:20;1.70;;;0.90;;
14797;SDS011;7490;63.708;20.368;2024-02-21T10:17:49;1.00;;;0.87;;
14797;SDS011;7490;63.708;20.368;2024-02-21T10:20:23;0.97;;;0.97;;
14797;SDS011;7490;63.708;20.368;2024-02-21T10:22:48;0.87;;;0.80;;
14797;SDS011;7490;63.708;20.368;2024-02-21T10:25:16;1.83;;;0.70;;
14797;SDS011;7490;63.708;20.368;2024-02-21T10:27:42;0.90;;;0.80;;
14797;SDS011;7490;63.708;20.368;2024-02-21T10:30:12;1.23;;;0.80;;
14797;SDS011;7490;63.708;20.368;2024-02-21T10:32:49;1.37;;;0.90;;
14797;SDS011;7490;63.708;20.368;2024-02-21T10:35:24;0.80;;;0.80;;
14797;SDS011;7490;63.708;20.368;2024-02-21T10:37:57;1.13;;;0.60;;
14797;SDS011;7490;63.708;20.368;2024-02-21T10:40:24;0.83;;;0.70;;
14797;SDS011;7490;63.708;20.368;2024-02-21T10:42:57;1.30;;;0.80;;
14797;SDS011;7490;63.708;20.368;2024-02-21T10:45:27;1.37;;;0.80;;
14797;SDS011;7490;63.708;20.368;2024-02-21T10:47:57;1.30;;;1.20;;
14797;SDS011;7490;63.708;20.368;2024-02-21T10:50:36;1.10;;;0.90;;
14797;SDS011;7490;63.708;20.368;2024-02-21T10:53:22;0.90;;;0.90;;
14797;SDS011;7490;63.708;20.368;2024-02-21T10:56:14;1.90;;;0.67;;
14797;SDS011;7490;63.708;20.368;2024-02-21T10:58:47;1.33;;;0.80;;
14797;SDS011;7490;63.708;20.368;2024-02-21T11:01:13;1.17;;;0.60;;
14797;SDS011;7490;63.708;20.368;2024-02-21T11:03:41;1.00;;;0.90;;
14797;SDS011;7490;63.708;20.368;2024-02-21T11:06:09;1.63;;;0.50;;
14797;SDS011;7490;63.708;20.368;2024-02-21T11:08:37;0.80;;;0.70;;
14797;SDS011;7490;63.708;20.368;2024-02-21T11:11:04;1.20;;;1.10;;
14797;SDS011;7490;63.708;20.368;2024-02-21T11:13:36;1.03;;;0.70;;
14797;SDS011;7490;63.708;20.368;2024-02-21T11:16:08;1.97;;;0.83;;
14797;SDS011;7490;63.708;20.368;2024-02-21T11:18:38;1.40;;;1.00;;
14797;SDS011;7490;63.708;20.368;2024-02-21T11:21:04;0.70;;;0.70;;
14797;SDS011;7490;63.708;20.368;2024-02-21T11:23:30;1.03;;;0.70;;
14797;SDS011;7490;63.708;20.368;2024-02-21T11:28:31;1.20;;;0.90;;
14797;SDS011;7490;63.708;20.368;2024-02-21T11:31:07;0.97;;;0.70;;
14797;SDS011;7490;63.708;20.368;2024-02-21T11:33:35;0.70;;;0.67;;
14797;SDS011;7490;63.708;20.368;2024-02-21T11:36:08;0.90;;;0.87;;
14797;SDS011;7490;63.708;20.368;2024-02-21T11:38:34;1.53;;;0.70;;
14797;SDS011;7490;63.708;20.368;2024-02-21T11:41:00;0.93;;;0.90;;
14797;SDS011;7490;63.708;20.368;2024-02-21T11:43:26;1.50;;;0.73;;
14797;SDS011;7490;63.708;20.368;2024-02-21T11:46:01;0.70;;;0.70;;
14797;SDS011;7490;63.708;20.368;2024-02-21T11:48:31;2.83;;;0.70;;
14797;SDS011;7490;63.708;20.368;2024-02-21T11:50:57;0.70;;;0.70;;
14797;SDS011;7490;63.708;20.368;2024-02-21T11:53:23;0.90;;;0.90;;
14797;SDS011;7490;63.708;20.368;2024-02-21T11:55:49;1.73;;;1.00;;
14797;SDS011;7490;63.708;20.368;2024-02-21T11:58:16;1.07;;;0.97;;
14797;SDS011;7490;63.708;20.368;2024-02-21T12:00:41;2.43;;;0.90;;
14797;SDS011;7490;63.708;20.368;2024-02-21T12:03:07;2.87;;;1.10;;
14797;SDS011;7490;63.708;20.368;2024-02-21T12:05:33;0.80;;;0.80;;
14797;SDS011;7490;63.708;20.368;2024-02-21T12:08:00;1.03;;;0.60;;
14797;SDS011;7490;63.708;20.368;2024-02-21T12:10:26;0.70;;;0.70;;
14797;SDS011;7490;63.708;20.368;2024-02-21T12:13:04;2.67;;;0.70;;
14797;SDS011;7490;63.708;20.368;2024-02-21T12:15:33;0.70;;;0.70;;
14797;SDS011;7490;63.708;20.368;2024-02-21T12:18:00;0.90;;;0.70;;
14797;SDS011;7490;63.708;20.368;2024-02-21T12:20:26;0.70;;;0.70;;
14797;SDS011;7490;63.708;20.368;2024-02-21T12:22:52;0.90;;;0.90;;
14797;SDS011;7490;63.708;20.368;2024-02-21T12:25:20;2.20;;;1.07;;
14797;SDS011;7490;63.708;20.368;2024-02-21T12:27:52;1.87;;;0.90;;
14797;SDS011;7490;63.708;20.368;2024-02-21T12:30:18;1.67;;;0.80;;
14797;SDS011;7490;63.708;20.368;2024-02-21T12:32:44;0.80;;;0.80;;
14797;SDS011;7490;63.708;20.368;2024-02-21T12:35:10;0.70;;;0.70;;
14797;SDS011;7490;63.708;20.368;2024-02-21T12:37:36;1.07;;;0.77;;
14797;SDS011;7490;63.708;20.368;2024-02-21T12:40:05;1.90;;;0.83;;
14797;SDS011;7490;63.708;20.368;2024-02-21T12:42:33;1.83;;;0.73;;
14797;SDS011;7490;63.708;20.368;2024-02-21T12:44:59;0.70;;;0.70;;
14797;SDS011;7490;63.708;20.368;2024-02-21T12:47:25;1.90;;;0.70;;
14797;SDS011;7490;63.708;20.368;2024-02-21T12:49:52;0.90;;;0.90;;
14797;SDS011;7490;63.708;20.368;2024-02-21T12:52:18;0.97;;;0.80;;
14797;SDS011;7490;63.708;20.368;2024-02-21T12:54:44;1.07;;;0.70;;
14797;SDS011;7490;63.708;20.368;2024-02-21T12:57:09;2.70;;;0.90;;
14797;SDS011;7490;63.708;20.368;2024-02-21T12:59:35;0.90;;;0.60;;
14797;SDS011;7490;63.708;20.368;2024-02-21T13:02:01;1.33;;;0.83;;
14797;SDS011;7490;63.708;20.368;2024-02-21T13:04:26;1.07;;;0.90;;
14797;SDS011;7490;63.708;20.368;2024-02-21T13:06:52;1.07;;;0.67;;
14797;SDS011;7490;63.708;20.368;2024-02-21T13:09:18;1.57;;;0.77;;
14797;SDS011;7490;63.708;20.368;2024-02-21T13:11:44;1.07;;;0.70;;
14797;SDS011;7490;63.708;20.368;2024-02-21T13:14:11;0.50;;;0.50;;
14797;SDS011;7490;63.708;20.368;2024-02-21T13:16:36;1.03;;;0.80;;
14797;SDS011;7490;63.708;20.368;2024-02-21T13:19:07;0.77;;;0.77;;
14797;SDS011;7490;63.708;20.368;2024-02-21T13:21:36;0.77;;;0.77;;
14797;SDS011;7490;63.708;20.368;2024-02-21T13:24:02;1.17;;;0.80;;
14797;SDS011;7490;63.708;20.368;2024-02-21T13:26:28;0.70;;;0.70;;
14797;SDS011;7490;63.708;20.368;2024-02-21T13:28:54;1.20;;;0.60;;
14797;SDS011;7490;63.708;20.368;2024-02-21T13:31:20;1.97;;;0.80;;
14797;SDS011;7490;63.708;20.368;2024-02-21T13:33:46;1.17;;;0.70;;
14797;SDS011;7490;63.708;20.368;2024-02-21T13:36:11;0.60;;;0.60;;
14797;SDS011;7490;63.708;20.368;2024-02-21T13:38:37;1.70;;;0.70;;
14797;SDS011;7490;63.708;20.368;2024-02-21T13:41:06;1.07;;;0.70;;
14797;SDS011;7490;63.708;20.368;2024-02-21T13:43:32;0.87;;;0.73;;
14797;SDS011;7490;63.708;20.368;2024-02-21T13:46:01;2.20;;;0.80;;
14797;SDS011;7490;63.708;20.368;2024-02-21T13:48:34;0.70;;;0.70;;
14797;SDS011;7490;63.708;20.368;2024-02-21T13:51:00;0.80;;;0.80;;
14797;SDS011;7490;63.708;20.368;2024-02-21T13:53:27;1.00;;;1.00;;
14797;SDS011;7490;63.708;20.368;2024-02-21T13:55:53;1.47;;;0.90;;
14797;SDS011;7490;63.708;20.368;2024-02-21T13:58:19;1.40;;;1.10;;
14797;SDS011;7490;63.708;20.368;2024-02-21T14:00:45;1.70;;;0.93;;
14797;SDS011;7490;63.708;20.368;2024-02-21T14:03:10;1.20;;;0.90;;
14797;SDS011;7490;63.708;20.368;2024-02-21T14:05:36;1.23;;;1.10;;
14797;SDS011;7490;63.708;20.368;2024-02-21T14:08:02;1.60;;;1.00;;
14797;SDS011;7490;63.708;20.368;2024-02-21T14:10:28;1.73;;;1.10;;
14797;SDS011;7490;63.708;20.368;2024-02-21T14:12:53;0.90;;;0.90;;
14797;SDS011;7490;63.708;20.368;2024-02-21T14:15:20;1.57;;;0.83;;
14797;SDS011;7490;63.708;20.368;2024-02-21T14:17:45;1.83;;;1.00;;
14797;SDS011;7490;63.708;20.368;2024-02-21T14:20:11;0.90;;;0.90;;
14797;SDS011;7490;63.708;20.368;2024-02-21T14:22:39;1.27;;;1.17;;
14797;SDS011;7490;63.708;20.368;2024-02-21T14:25:05;1.27;;;1.10;;
14797;SDS011;7490;63.708;20.368;2024-02-21T14:27:32;0.97;;;0.90;;
14797;SDS011;7490;63.708;20.368;2024-02-21T14:29:57;1.47;;;1.03;;
14797;SDS011;7490;63.708;20.368;2024-02-21T14:32:23;1.57;;;1.40;;
14797;SDS011;7490;63.708;20.368;2024-02-21T14:34:49;1.53;;;1.37;;
14797;SDS011;7490;63.708;20.368;2024-02-21T14:37:15;2.80;;;1.87;;
14797;SDS011;7490;63.708;20.368;2024-02-21T14:39:41;2.27;;;1.60;;
14797;SDS011;7490;63.708;20.368;2024-02-21T14:42:07;1.97;;;1.63;;
14797;SDS011;7490;63.708;20.368;2024-02-21T14:44:34;2.33;;;1.40;;
14797;SDS011;7490;63.708;20.368;2024-02-21T14:47:02;1.80;;;1.70;;
14797;SDS011;7490;63.708;20.368;2024-02-21T14:49:28;2.77;;;2.20;;
14797;SDS011;7490;63.708;20.368;2024-02-21T14:51:54;1.20;;;1.10;;